createdAt,value
2022-08-19T04:44:16.330Z,21.74
2022-08-19T04:49:44.792Z,21.73
2022-08-19T16:19:06.934Z,24.85
2022-08-19T16:24:07.347Z,24.80
2022-08-19T16:29:04.082Z,24.74
2022-08-19T16:34:05.562Z,24.66
2022-08-19T16:39:01.909Z,24.59
2022-08-19T16:43:58.229Z,24.52
2022-08-19T16:48:54.634Z,24.45
2022-08-19T16:53:52.863Z,24.41
2022-08-19T16:58:50.410Z,24.38
2022-08-19T17:03:49.813Z,24.34
2022-08-19T17:08:48.746Z,24.32
2022-08-19T17:13:45.299Z,24.25
2022-08-19T17:18:44.532Z,24.18
2022-08-19T17:23:43.524Z,24.14
2022-08-19T17:28:40.464Z,24.09
2022-08-19T17:33:41.410Z,24.04
2022-08-19T17:38:39.235Z,24.00
2022-08-19T17:43:40.030Z,23.97
2022-08-19T17:48:39.532Z,23.92
2022-08-19T17:53:36.567Z,23.85
2022-08-19T17:58:32.983Z,23.79
2022-08-19T18:03:30.409Z,23.73
2022-08-19T18:08:28.355Z,23.69
2022-08-19T18:13:24.681Z,23.64
2022-08-19T18:18:21.317Z,23.60
2022-08-19T18:23:45.439Z,23.55
2022-08-19T18:28:33.915Z,23.49
2022-08-19T18:33:30.477Z,23.45
2022-08-19T18:38:45.566Z,23.38
2022-08-19T18:44:01.054Z,23.33
2022-08-19T18:49:07.013Z,23.25
2022-08-19T18:54:03.535Z,23.18
2022-08-19T18:58:59.986Z,23.12
2022-08-19T19:03:59.815Z,23.07
2022-08-19T19:08:56.742Z,23.01
2022-08-19T19:13:53.246Z,22.96
2022-08-19T19:18:52.311Z,22.89
2022-08-19T19:23:48.777Z,22.84
2022-08-19T19:28:48.040Z,22.77
2022-08-19T19:33:44.427Z,22.71
2022-08-19T19:38:48.343Z,22.65
2022-08-19T19:43:45.165Z,22.59
2022-08-19T19:48:41.580Z,22.53
2022-08-19T19:53:38.142Z,22.48
2022-08-19T19:58:37.424Z,22.44
2022-08-19T20:03:33.792Z,22.40
2022-08-19T20:08:48.899Z,22.37
